SBDN/PPB METAR and TAF weather

Enter ICAO airport designator
Station Type Date Time Source
SBDN METAR 2020/01/18 12:00 UTC NOAA

SBDN 181200Z 11013KT CAVOK 24/16 Q1018


Station Type Date Time Source
SBDN Decoded METAR 2020/01/18 12:00 UTC NOAA

Presidente Prudente, Brazil (SBDN) 22-07S 051-23W
Jan 18, 2020 - 07:00 AM EST / 2020.01.18 1200 UTC
Wind: from the ESE (110 degrees) at 15 MPH (13 KT):0
Visibility: greater than 7 mile(s):0
Temperature: 75 F (24 C)
Dew Point: 60 F (16 C)
Relative Humidity: 60%
Pressure (altimeter): 30.06 in. Hg (1018 hPa)
ob: SBDN 181200Z 11013KT CAVOK 24/16 Q1018
cycle: 12

Station Type Date Time Source
SBDN TAF 2020/01/18 12:33 UTC NOAA

TAF SBDN 180830Z 1812/1824 11012KT CAVOK TN26/1812Z TX32/1818Z
BECMG 1812/1814 9999 SCT030
RMK PEL

Example: see airport list